Time;durP1;ratioP1;P1;durP2;ratioP2;P2;SDS_P1;SDS_P2;PMS_P1;PMS_P2;Temp;Humidity;BMP_temperature;BMP_pressure;BME280_temperature;BME280_humidity;BME280_pressure;Samples;Min_cycle;Max_cycle;Signal;HPM_P1;HPM_P2
2022/07/15 00:06:40;;;;;;;2.58;1.30;;;;;;;26.16;41.63;100087.53;18409659;31;20111;-56
2022/07/15 00:16:44;;;;;;;2.00;1.30;;;;;;;26.08;41.93;100070.38;18356205;32;20093;-56
2022/07/15 00:26:47;;;;;;;3.50;1.85;;;;;;;26.40;41.42;100040.41;18354618;31;20100;-56
2022/07/15 00:36:52;;;;;;;3.35;1.60;;;;;;;27.58;38.71;100038.62;18407015;31;20121;-56
2022/07/15 00:46:55;;;;;;;2.67;1.50;;;;;;;27.84;38.75;100004.34;18353707;32;20141;-56
2022/07/15 00:57:01;;;;;;;4.32;1.55;;;;;;;27.79;39.36;100010.09;18355707;32;20155;-56
2022/07/15 01:07:04;;;;;;;2.45;1.60;;;;;;;27.48;38.70;100019.72;18362826;32;20402;-56
2022/07/15 01:17:11;;;;;;;3.03;1.50;;;;;;;28.40;36.91;100053.47;18362271;32;20094;-56
2022/07/15 01:27:16;;;;;;;3.60;1.45;;;;;;;28.18;38.12;100081.22;18361922;32;20150;-56
2022/07/15 01:37:20;;;;;;;3.65;1.77;;;;;;;28.20;38.26;100111.47;18414237;31;20146;-56
2022/07/15 01:47:25;;;;;;;3.33;1.10;;;;;;;27.86;38.76;100152.56;18361159;32;20109;-55
2022/07/15 01:57:28;;;;;;;1.87;1.08;;;;;;;27.54;38.68;100126.44;18360756;31;20112;-56
2022/07/15 02:07:33;;;;;;;3.55;1.27;;;;;;;27.58;38.18;100109.19;18359656;32;20455;-56
2022/07/15 02:17:36;;;;;;;1.73;1.08;;;;;;;27.25;39.18;100114.34;18360022;32;20120;-56
2022/07/15 02:27:41;;;;;;;1.50;1.08;;;;;;;26.82;39.85;100110.41;18359590;32;20097;-56
2022/07/15 02:37:44;;;;;;;1.17;0.80;;;;;;;27.29;38.52;100139.09;18359231;32;20098;-56
2022/07/15 02:47:49;;;;;;;1.67;0.98;;;;;;;27.47;37.96;100186.88;18358909;32;20092;-56
2022/07/15 02:57:53;;;;;;;3.08;1.00;;;;;;;27.39;38.31;100198.16;18358406;31;20150;-56
2022/07/15 03:07:57;;;;;;;0.77;0.77;;;;;;;27.13;39.15;100201.03;18358238;32;20127;-56
2022/07/15 03:18:00;;;;;;;0.98;0.85;;;;;;;27.01;37.45;100192.91;18357840;32;20146;-56
2022/07/15 03:28:05;;;;;;;1.30;0.80;;;;;;;26.88;36.06;100178.75;18357443;31;20093;-56
2022/07/15 03:38:08;;;;;;;1.10;0.68;;;;;;;27.15;35.68;100186.53;18357019;32;20104;-56
2022/07/15 03:48:13;;;;;;;2.30;0.98;;;;;;;26.88;35.75;100186.78;18356630;32;20097;-56
2022/07/15 03:58:17;;;;;;;0.77;0.77;;;;;;;26.92;35.12;100161.47;18353747;31;72851;-56
2022/07/15 04:08:21;;;;;;;1.12;0.70;;;;;;;26.81;35.81;100177.47;18356797;32;20113;-56
2022/07/15 04:18:24;;;;;;;0.93;0.80;;;;;;;26.91;36.33;100188.38;18354989;32;20113;-56
2022/07/15 04:28:36;;;;;;;;;;;;;;;27.09;36.83;100208.44;18355071;31;20085;-56
2022/07/15 04:38:39;;;;;;;2.05;1.33;;;;;;;27.08;36.61;100200.50;18362699;32;19981;-55
2022/07/15 04:59:04;;;;;;;3.08;1.30;;;;;;;26.35;39.13;100252.12;18362810;31;20093;-55
2022/07/15 05:09:09;;;;;;;3.25;1.10;;;;;;;25.88;40.76;100279.38;18416485;31;20093;-56
2022/07/15 05:19:12;;;;;;;1.58;1.20;;;;;;;25.15;43.63;100262.00;18362212;32;20089;-56
2022/07/15 05:29:17;;;;;;;3.12;1.37;;;;;;;25.48;44.37;100277.59;18362087;32;20097;-56
2022/07/15 05:39:20;;;;;;;1.45;1.10;;;;;;;24.56;47.45;100287.06;18414095;31;20124;-56
2022/07/15 05:49:25;;;;;;;3.40;1.33;;;;;;;24.92;47.48;100283.03;18359954;32;20093;-56
2022/07/15 05:59:29;;;;;;;1.67;1.10;;;;;;;24.49;49.59;100310.59;18360386;32;20111;-56
2022/07/15 06:09:34;;;;;;;2.12;1.20;;;;;;;24.31;50.51;100320.62;18360411;32;20438;-56
2022/07/15 06:19:37;;;;;;;3.97;1.48;;;;;;;24.03;52.37;100360.44;18359860;32;20112;-56
2022/07/15 06:29:42;;;;;;;2.90;1.30;;;;;;;23.88;53.02;100370.19;18412403;31;20094;-56
2022/07/15 06:39:45;;;;;;;2.78;1.08;;;;;;;24.02;51.85;100374.72;18412992;31;20098;-56
2022/07/15 06:49:50;;;;;;;3.35;1.48;;;;;;;23.88;52.49;100398.66;18409192;31;20101;-56
2022/07/15 06:59:53;;;;;;;2.97;1.30;;;;;;;23.96;52.56;100359.94;18355493;31;20101;-56
2022/07/15 07:09:58;;;;;;;3.28;1.20;;;;;;;24.44;50.84;100411.41;18357221;32;20089;-56
2022/07/15 07:20:01;;;;;;;1.75;1.30;;;;;;;24.48;50.91;100402.25;18356826;32;20093;-56
2022/07/15 07:30:08;;;;;;;2.55;1.27;;;;;;;24.86;49.60;100428.44;18355407;32;20501;-56
2022/07/15 07:40:11;;;;;;;6.70;2.67;;;;;;;24.97;50.05;100482.97;18356015;32;20153;-55
2022/07/15 07:50:16;;;;;;;6.18;3.03;;;;;;;25.18;50.08;100491.47;18356129;32;20154;-55
2022/07/15 08:00:20;;;;;;;11.40;5.22;;;;;;;25.15;50.21;100507.69;18355518;32;20094;-56
2022/07/15 08:10:25;;;;;;;7.50;2.47;;;;;;;25.09;49.97;100498.25;18353236;32;20116;-56
2022/07/15 08:20:28;;;;;;;2.72;1.50;;;;;;;25.14;49.78;100490.81;18407692;31;20111;-56
2022/07/15 08:30:34;;;;;;;2.45;1.60;;;;;;;25.07;50.34;100474.31;18432825;31;20127;-56
2022/07/15 08:40:38;;;;;;;3.33;1.30;;;;;;;25.30;49.85;100496.03;18351123;31;20101;-56
2022/07/15 08:50:43;;;;;;;3.05;1.55;;;;;;;25.15;50.54;100475.66;18405172;31;20182;-56
2022/07/15 09:00:46;;;;;;;3.10;1.80;;;;;;;25.32;50.22;100482.59;18440208;31;20338;-57
2022/07/15 09:10:52;;;;;;;11.70;1.80;;;;;;;25.41;50.49;100519.41;18403277;31;20090;-56
2022/07/15 09:20:57;;;;;;;3.08;1.62;;;;;;;25.67;49.80;100519.63;18355922;32;20089;-56
2022/07/15 09:41:27;;;;;;;3.62;1.80;;;;;;;26.57;47.84;100511.06;18359307;32;20117;-56
2022/07/15 09:51:44;;;;;;;2.87;1.33;;;;;;;27.38;43.87;100505.53;18362210;32;20439;-56
2022/07/15 10:01:48;;;;;;;3.00;1.30;;;;;;;28.74;37.34;100491.06;18413147;31;20123;-56
2022/07/15 10:11:54;;;;;;;3.40;1.62;;;;;;;28.70;32.66;100494.13;18413157;31;20507;-55
2022/07/15 10:22:04;;;;;;;3.67;1.40;;;;;;;28.43;32.91;100503.31;18360047;32;20098;-56
2022/07/15 10:32:09;;;;;;;3.15;1.30;;;;;;;28.34;30.96;100468.16;18411942;31;20089;-56
2022/07/15 10:42:20;;;;;;;4.22;1.33;;;;;;;28.17;27.67;100453.31;18411935;31;20190;-55
2022/07/15 10:52:26;;;;;;;2.08;1.02;;;;;;;28.23;27.01;100433.25;18411555;31;20111;-56
2022/07/15 11:02:29;;;;;;;3.45;1.20;;;;;;;29.24;24.05;100425.41;18412110;31;20362;-56
2022/07/15 11:13:02;;;;;;;3.50;1.23;;;;;;;30.17;24.52;100435.81;18412404;31;20101;-55
2022/07/15 11:23:07;;;;;;;3.87;1.27;;;;;;;31.99;19.25;100416.34;18411422;31;20442;-55
2022/07/15 11:33:14;;;;;;;3.00;1.15;;;;;;;33.18;19.45;100423.97;18358321;31;20108;-55
2022/07/15 11:53:42;;;;;;;3.95;1.50;;;;;;;31.25;20.15;100440.94;18357411;32;20166;-56
2022/07/15 12:03:48;;;;;;;2.92;1.17;;;;;;;30.62;20.75;100433.78;18409535;31;20376;-56
2022/07/15 12:13:56;;;;;;;3.15;1.20;;;;;;;30.44;21.23;100451.44;18355612;32;20441;-55
2022/07/15 12:24:01;;;;;;;2.47;1.23;;;;;;;31.40;19.16;100450.34;18354922;32;20115;-55
2022/07/15 12:34:06;;;;;;;2.78;1.20;;;;;;;31.50;18.58;100436.03;18407383;31;20381;-54
2022/07/15 12:44:09;;;;;;;2.37;1.27;;;;;;;32.56;17.45;100435.28;18406868;31;20102;-55
2022/07/15 12:54:17;;;;;;;3.35;1.35;;;;;;;33.42;15.76;100424.41;18408961;31;20129;-55
2022/07/15 13:04:20;;;;;;;3.87;1.08;;;;;;;33.86;15.74;100420.97;18416380;31;20093;-55
2022/07/15 13:14:24;;;;;;;1.70;0.98;;;;;;;33.96;15.44;100432.53;18362758;32;20147;-54
2022/07/15 13:24:28;;;;;;;1.55;1.10;;;;;;;34.25;15.20;100441.44;18362936;32;20494;-55
2022/07/15 13:34:32;;;;;;;1.77;0.98;;;;;;;34.40;15.82;100431.72;18415476;31;20115;-55
2022/07/15 13:44:36;;;;;;;4.30;1.10;;;;;;;33.69;16.38;100447.03;18362318;32;20111;-55
2022/07/15 13:54:40;;;;;;;1.48;0.90;;;;;;;33.82;16.16;100442.06;18415041;31;20554;-54
2022/07/15 14:04:45;;;;;;;4.95;1.10;;;;;;;33.64;15.53;100452.91;18626695;31;20133;-55
2022/07/15 14:14:49;;;;;;;1.50;0.80;;;;;;;33.78;14.79;100456.94;18628966;31;20458;-55
2022/07/15 14:24:53;;;;;;;1.87;0.80;;;;;;;33.28;16.34;100472.59;18628627;31;20364;-55
2022/07/15 14:34:57;;;;;;;1.85;0.88;;;;;;;32.89;16.31;100451.97;18628695;31;20455;-55
2022/07/15 14:45:01;;;;;;;4.20;1.17;;;;;;;32.39;16.74;100450.41;18628517;31;20115;-54
2022/07/15 14:55:07;;;;;;;2.85;1.12;;;;;;;32.07;17.90;100457.81;18628417;31;20174;-54
2022/07/15 15:05:11;;;;;;;2.55;0.85;;;;;;;31.82;17.40;100464.63;18626433;31;20108;-54
2022/07/15 15:15:15;;;;;;;4.05;1.15;;;;;;;31.19;17.80;100458.47;18626025;31;20132;-55
2022/07/15 15:26:20;;;;;;;3.60;1.20;;;;;;;31.17;17.58;100455.06;18625963;31;20096;-55
2022/07/15 15:35:44;;;;;;;1.90;0.90;;;;;;;30.59;16.90;100453.75;18626920;31;20095;-55
2022/07/15 15:45:47;;;;;;;3.45;0.90;;;;;;;30.22;18.52;100473.09;18627589;31;20088;-54
2022/07/15 15:55:51;;;;;;;1.90;1.00;;;;;;;30.27;18.92;100468.16;18623185;31;20357;-55
2022/07/15 16:05:55;;;;;;;2.75;1.20;;;;;;;29.63;19.23;100478.78;18409960;31;20151;-54
2022/07/15 16:16:00;;;;;;;3.33;0.90;;;;;;;29.85;19.19;100475.16;18408156;31;20116;-55
2022/07/15 16:26:04;;;;;;;1.87;0.95;;;;;;;30.02;19.13;100475.56;18354812;32;20119;-54
2022/07/15 16:36:09;;;;;;;2.87;0.88;;;;;;;29.72;18.50;100472.62;18417473;31;20116;-54
2022/07/15 16:46:12;;;;;;;2.50;0.90;;;;;;;29.54;19.31;100471.47;18363739;32;20097;-54
2022/07/15 16:56:17;;;;;;;3.10;0.90;;;;;;;28.99;19.79;100464.16;18363016;32;20133;-55
2022/07/15 17:06:20;;;;;;;2.65;1.05;;;;;;;28.79;21.08;100478.16;18415585;31;20115;-55
2022/07/15 17:16:25;;;;;;;2.15;0.90;;;;;;;28.57;20.55;100491.53;18415149;31;20098;-55
2022/07/15 17:26:28;;;;;;;2.05;0.90;;;;;;;27.98;21.00;100504.81;18415484;31;20101;-55
2022/07/15 17:36:33;;;;;;;1.65;0.82;;;;;;;27.60;21.46;100508.50;18414622;31;20101;-56
2022/07/15 17:46:37;;;;;;;1.37;0.90;;;;;;;27.86;21.60;100508.41;18361441;32;20093;-55
2022/07/15 17:56:41;;;;;;;3.33;1.10;;;;;;;27.65;22.34;100509.03;18360855;32;20089;-56
2022/07/15 18:06:45;;;;;;;3.42;1.00;;;;;;;27.13;22.43;100527.88;18361907;32;20097;-56
2022/07/15 18:16:50;;;;;;;1.73;0.80;;;;;;;26.82;22.67;100537.97;18360563;32;20121;-56
2022/07/15 18:26:53;;;;;;;2.00;0.82;;;;;;;26.60;23.32;100544.81;18359810;32;20093;-57
2022/07/15 18:36:57;;;;;;;2.00;0.80;;;;;;;25.80;24.23;100543.75;18359613;32;20158;-56
2022/07/15 18:47:01;;;;;;;3.15;1.15;;;;;;;25.92;25.19;100543.91;18412020;31;20126;-55
2022/07/15 18:57:05;;;;;;;2.40;0.98;;;;;;;25.58;26.47;100555.78;18358177;32;20093;-56
2022/07/15 19:07:09;;;;;;;5.30;1.12;;;;;;;24.78;28.47;100570.41;18358306;32;20397;-56
2022/07/15 19:17:13;;;;;;;4.25;1.30;;;;;;;23.99;29.66;100577.50;18357992;32;20153;-56
2022/07/15 19:27:17;;;;;;;3.97;1.60;;;;;;;23.73;30.77;100598.47;18357374;32;20110;-56
2022/07/15 19:37:22;;;;;;;5.32;1.10;;;;;;;23.64;31.20;100601.62;18409841;31;20130;-55
2022/07/15 19:47:25;;;;;;;3.55;1.12;;;;;;;23.35;31.70;100614.69;18356816;32;20115;-55
2022/07/15 19:57:30;;;;;;;3.08;1.05;;;;;;;23.48;32.00;100606.94;18356124;32;20101;-55
2022/07/15 20:07:33;;;;;;;2.05;0.80;;;;;;;23.20;31.75;100603.03;18354711;32;20093;-56
2022/07/15 20:17:38;;;;;;;1.00;0.70;;;;;;;23.27;31.19;100596.44;18408417;31;20131;-55
2022/07/15 20:27:42;;;;;;;2.72;0.90;;;;;;;23.45;30.32;100593.78;18354924;32;20105;-55
2022/07/15 20:37:46;;;;;;;3.20;1.40;;;;;;;23.74;29.49;100602.84;18354432;32;20383;-55
2022/07/15 20:47:49;;;;;;;1.98;0.95;;;;;;;23.67;29.80;100620.97;18353925;32;20156;-55
2022/07/15 20:57:54;;;;;;;2.90;1.10;;;;;;;23.80;29.61;100620.31;18353235;32;20480;-55
2022/07/15 21:08:02;;;;;;;1.58;1.00;;;;;;;23.83;29.46;100615.66;18406841;31;20353;-55
2022/07/15 21:18:07;;;;;;;2.25;1.10;;;;;;;23.61;30.40;100634.63;18358860;32;20442;-55
2022/07/15 21:28:11;;;;;;;7.60;1.50;;;;;;;23.06;32.42;100647.22;18362333;32;20116;-55
2022/07/15 21:38:15;;;;;;;2.97;1.02;;;;;;;22.54;34.22;100659.50;18363034;32;20425;-55
2022/07/15 21:48:19;;;;;;;2.85;1.30;;;;;;;21.98;35.21;100667.37;18415036;31;20376;-55
2022/07/15 21:58:23;;;;;;;3.85;1.17;;;;;;;21.80;36.13;100665.56;18360707;32;20112;-55
2022/07/15 22:08:26;;;;;;;4.97;1.15;;;;;;;21.52;37.03;100677.37;18360582;32;20094;-55
2022/07/15 22:18:31;;;;;;;3.75;1.27;;;;;;;20.80;38.28;100701.56;18360313;32;20093;-55
2022/07/15 22:28:34;;;;;;;3.35;1.33;;;;;;;20.84;38.40;100697.03;18359030;32;20338;-55
2022/07/15 22:38:39;;;;;;;1.60;1.08;;;;;;;20.72;39.15;100698.34;18359338;32;20073;-55
2022/07/15 22:48:43;;;;;;;1.83;1.10;;;;;;;20.63;38.75;100696.91;18359189;32;20111;-55
2022/07/15 22:58:47;;;;;;;2.90;1.35;;;;;;;20.51;39.19;100703.59;18359529;32;20098;-55
2022/07/15 23:08:50;;;;;;;2.75;1.70;;;;;;;19.87;41.42;100716.53;18359232;32;20353;-55
2022/07/15 23:18:55;;;;;;;2.35;1.30;;;;;;;20.00;40.93;100718.75;18410837;31;20098;-55
2022/07/15 23:28:58;;;;;;;5.28;1.40;;;;;;;20.33;39.35;100711.34;18357737;32;20100;-55
2022/07/15 23:39:03;;;;;;;1.80;0.93;;;;;;;20.44;39.76;100704.75;18358144;32;20094;-55
2022/07/15 23:49:07;;;;;;;2.70;1.23;;;;;;;20.62;39.14;100708.44;18409612;31;20100;-55
